createdAt,value
2019-05-20T00:00:10.915Z,14.5
2019-05-20T00:01:01.263Z,14.5
2019-05-20T00:01:51.060Z,14.5
2019-05-20T00:02:41.381Z,14.4
2019-05-20T00:03:31.430Z,14.4
2019-05-20T00:04:21.528Z,14.4
2019-05-20T00:05:11.583Z,14.4
2019-05-20T00:06:02.191Z,14.4
2019-05-20T00:06:51.710Z,14.4
2019-05-20T00:07:41.763Z,14.4
2019-05-20T00:08:31.824Z,14.4
2019-05-20T00:09:21.350Z,14.4
2019-05-20T00:10:12.002Z,14.4
2019-05-20T00:11:02.242Z,14.4
2019-05-20T00:11:54.912Z,14.4
2019-05-20T00:12:42.185Z,14.3
2019-05-20T00:13:32.242Z,14.3
2019-05-20T00:14:21.994Z,14.3
2019-05-20T00:15:12.578Z,14.3
2019-05-20T00:16:02.131Z,14.3
2019-05-20T00:16:52.472Z,14.3
2019-05-20T00:17:42.543Z,14.3
2019-05-20T00:18:32.582Z,14.3
2019-05-20T00:19:22.647Z,14.3
2019-05-20T00:20:12.727Z,14.2
2019-05-20T00:21:02.502Z,14.3
2019-05-20T00:21:52.656Z,14.2
2019-05-20T00:22:42.629Z,14.2
2019-05-20T00:23:32.695Z,14.2
2019-05-20T00:24:23.032Z,14.2
2019-05-20T00:25:13.144Z,14.2
2019-05-20T00:26:02.902Z,14.2
2019-05-20T00:26:53.227Z,14.2
2019-05-20T00:27:43.294Z,14.1
2019-05-20T00:28:33.373Z,14.1
2019-05-20T00:29:23.427Z,14.1
2019-05-20T00:30:13.239Z,14.1
2019-05-20T00:31:03.560Z,14.1
2019-05-20T00:31:53.331Z,14.1
2019-05-20T00:32:43.858Z,14.1
2019-05-20T00:33:33.199Z,14.1
2019-05-20T00:34:36.573Z,14.1
2019-05-20T00:35:13.601Z,14.1
2019-05-20T00:36:03.657Z,14.1
2019-05-20T00:36:53.730Z,14.1
2019-05-20T00:37:43.851Z,14
2019-05-20T00:38:33.843Z,14
2019-05-20T00:39:24.176Z,14
2019-05-20T00:40:13.968Z,14
2019-05-20T00:41:04.303Z,14
2019-05-20T00:41:54.378Z,13.9
2019-05-20T00:42:44.446Z,13.9
2019-05-20T00:43:34.586Z,13.9
2019-05-20T00:44:24.343Z,13.9
2019-05-20T00:45:14.615Z,13.9
2019-05-20T00:46:04.695Z,13.9
2019-05-20T00:46:54.765Z,13.9
2019-05-20T00:47:44.822Z,13.9
2019-05-20T00:48:34.608Z,13.9
2019-05-20T00:49:24.952Z,13.9
2019-05-20T00:50:15.006Z,13.9
2019-05-20T00:51:04.798Z,13.9
2019-05-20T00:51:55.124Z,13.8
2019-05-20T00:52:45.210Z,13.8
2019-05-20T00:53:35.266Z,13.8
2019-05-20T00:54:25.315Z,13.8
2019-05-20T00:55:15.393Z,13.8
2019-05-20T00:56:05.473Z,13.8
2019-05-20T00:56:55.225Z,13.8
2019-05-20T00:57:45.573Z,13.8
2019-05-20T00:58:35.359Z,13.8
2019-05-20T00:59:25.681Z,13.8
2019-05-20T01:00:15.838Z,13.8
2019-05-20T01:01:05.561Z,13.8
2019-05-20T01:01:55.875Z,13.8
2019-05-20T01:02:58.387Z,13.7
2019-05-20T01:04:26.138Z,13.7
2019-05-20T01:05:16.135Z,13.7
2019-05-20T01:06:06.218Z,13.7
2019-05-20T01:06:56.256Z,13.8
2019-05-20T01:07:45.757Z,13.7
2019-05-20T01:08:36.368Z,13.7
2019-05-20T01:10:16.505Z,13.7
2019-05-20T01:11:06.348Z,13.7
2019-05-20T01:11:56.343Z,13.7
2019-05-20T01:12:46.696Z,13.7
2019-05-20T01:13:36.755Z,13.7
2019-05-20T01:14:26.862Z,13.6
2019-05-20T01:15:16.383Z,13.7
2019-05-20T01:16:06.951Z,13.6
2019-05-20T01:16:57.069Z,13.7
2019-05-20T01:17:47.100Z,13.7
2019-05-20T01:18:36.865Z,13.7
2019-05-20T01:19:27.192Z,13.6
2019-05-20T01:20:17.322Z,13.7
2019-05-20T01:21:07.325Z,13.6
2019-05-20T01:21:57.127Z,13.6
2019-05-20T01:22:47.192Z,13.7
2019-05-20T01:23:37.530Z,13.7
2019-05-20T01:24:27.322Z,13.6
2019-05-20T01:25:17.640Z,13.7
2019-05-20T01:26:07.429Z,13.6
2019-05-20T01:26:57.515Z,13.6
2019-05-20T01:27:47.847Z,13.6
2019-05-20T01:28:37.959Z,13.6
2019-05-20T01:29:27.447Z,13.6
2019-05-20T01:30:18.040Z,13.6
2019-05-20T01:31:07.868Z,13.6
2019-05-20T01:31:58.165Z,13.6
2019-05-20T01:32:48.217Z,13.6
2019-05-20T01:33:38.286Z,13.6
2019-05-20T01:34:28.353Z,13.6
2019-05-20T01:35:18.415Z,13.6
2019-05-20T01:36:08.192Z,13.6
2019-05-20T01:36:58.258Z,13.6
2019-05-20T01:37:48.336Z,13.6
2019-05-20T01:38:38.387Z,13.6
2019-05-20T01:39:28.605Z,13.6
2019-05-20T01:40:18.779Z,13.6
2019-05-20T01:41:08.576Z,13.5
2019-05-20T01:41:58.992Z,13.5
2019-05-20T01:42:48.976Z,13.5
2019-05-20T01:43:39.041Z,13.5
2019-05-20T01:44:29.121Z,13.5
2019-05-20T01:45:19.164Z,13.4
2019-05-20T01:46:08.973Z,13.4
2019-05-20T01:46:59.296Z,13.4
2019-05-20T01:47:49.101Z,13.4
2019-05-20T01:48:39.410Z,13.4
2019-05-20T01:49:29.227Z,13.4
2019-05-20T01:50:19.304Z,13.4
2019-05-20T01:51:09.341Z,13.4
2019-05-20T01:51:59.681Z,13.4
2019-05-20T01:52:49.722Z,13.4
2019-05-20T01:53:39.536Z,13.4
2019-05-20T01:54:29.321Z,13.3
2019-05-20T01:55:19.663Z,13.3
2019-05-20T01:56:09.999Z,13.3
2019-05-20T01:56:59.779Z,13.3
2019-05-20T01:57:50.123Z,13.3
2019-05-20T01:58:41.910Z,13.3
2019-05-20T01:59:30.265Z,13.3
2019-05-20T02:00:20.050Z,13.3
2019-05-20T02:01:10.385Z,13.3
2019-05-20T02:02:00.543Z,13.3
2019-05-20T02:02:50.536Z,13.3
2019-05-20T02:03:40.581Z,13.2
2019-05-20T02:04:30.685Z,13.2
2019-05-20T02:05:20.714Z,13.2
2019-05-20T02:06:10.800Z,13.2
2019-05-20T02:07:00.828Z,13.2
2019-05-20T02:07:50.913Z,13.2
2019-05-20T02:08:40.947Z,13.1
2019-05-20T02:09:31.020Z,13.1
2019-05-20T02:10:20.802Z,13.1
2019-05-20T02:11:11.203Z,13.1
2019-05-20T02:12:01.205Z,13.1
2019-05-20T02:12:51.012Z,13.1
2019-05-20T02:13:41.340Z,13.1
2019-05-20T02:14:31.113Z,13.1
2019-05-20T02:15:21.481Z,13.1
2019-05-20T02:16:10.977Z,13.1
2019-05-20T02:17:04.005Z,13.1
2019-05-20T02:17:51.664Z,13.1
2019-05-20T02:18:41.709Z,13
2019-05-20T02:19:31.781Z,13
2019-05-20T02:20:21.834Z,13
2019-05-20T02:21:11.949Z,13
2019-05-20T02:22:01.986Z,13
2019-05-20T02:22:52.043Z,12.9
2019-05-20T02:23:41.557Z,12.9
2019-05-20T02:24:32.159Z,12.9
2019-05-20T02:25:21.949Z,12.9
2019-05-20T02:26:12.304Z,12.9
2019-05-20T02:27:02.585Z,12.9
2019-05-20T02:27:52.149Z,12.9
2019-05-20T02:28:42.219Z,12.9
2019-05-20T02:29:32.547Z,12.9
2019-05-20T02:30:22.461Z,12.9
2019-05-20T02:31:12.409Z,12.9
2019-05-20T02:32:02.814Z,12.9
2019-05-20T02:32:52.814Z,12.8
2019-05-20T02:33:54.172Z,12.8
2019-05-20T02:34:47.590Z,12.8
2019-05-20T02:35:22.839Z,12.8
2019-05-20T02:36:13.051Z,12.8
2019-05-20T02:37:03.135Z,12.8
2019-05-20T02:38:43.246Z,12.8
2019-05-20T02:39:33.066Z,12.8
2019-05-20T02:40:23.381Z,12.8
2019-05-20T02:41:13.196Z,12.8
2019-05-20T02:42:02.960Z,12.8
2019-05-20T02:42:53.309Z,12.7
2019-05-20T02:44:33.548Z,12.7
2019-05-20T02:45:23.774Z,12.7
2019-05-20T02:46:13.573Z,12.7
2019-05-20T02:47:03.953Z,12.7
2019-05-20T02:47:53.965Z,12.6
2019-05-20T02:48:43.746Z,12.7
2019-05-20T02:49:34.090Z,12.6
2019-05-20T02:50:24.155Z,12.6
2019-05-20T02:51:14.212Z,12.6
2019-05-20T02:52:04.299Z,12.6
2019-05-20T02:52:54.333Z,12.6
2019-05-20T02:53:44.134Z,12.6
2019-05-20T02:54:34.463Z,12.6
2019-05-20T02:55:24.538Z,12.6
2019-05-20T02:56:14.593Z,12.6
2019-05-20T02:57:04.367Z,12.6
2019-05-20T02:57:54.170Z,12.6
2019-05-20T02:58:44.820Z,12.6
2019-05-20T02:59:34.292Z,12.6
2019-05-20T03:00:24.651Z,12.6
2019-05-20T03:01:14.737Z,12.5
2019-05-20T03:02:04.473Z,12.5
2019-05-20T03:02:55.108Z,12.5
2019-05-20T03:06:23.892Z,12.4
2019-05-20T03:09:01.795Z,12.4
2019-05-20T03:09:51.695Z,12.4
2019-05-20T03:10:41.739Z,12.4
2019-05-20T03:11:31.518Z,12.4
2019-05-20T03:12:21.852Z,12.4
2019-05-20T03:13:12.157Z,12.4
2019-05-20T03:14:01.737Z,12.4
2019-05-20T03:14:52.029Z,12.4
2019-05-20T03:15:41.823Z,12.4
2019-05-20T03:16:32.176Z,12.4
2019-05-20T03:17:21.674Z,12.4
2019-05-20T03:18:11.999Z,12.4
2019-05-20T03:19:02.105Z,12.3
2019-05-20T03:19:52.417Z,12.4
2019-05-20T03:20:42.486Z,12.3
2019-05-20T03:23:12.724Z,12.3
2019-05-20T03:24:53.243Z,12.3
2019-05-20T03:25:42.871Z,12.3
2019-05-20T03:26:32.928Z,12.3
2019-05-20T03:29:03.139Z,12.3
2019-05-20T03:29:53.173Z,12.3
2019-05-20T03:30:43.268Z,12.3
2019-05-20T03:32:23.171Z,12.3
2019-05-20T03:33:13.737Z,12.3
2019-05-20T03:34:03.742Z,12.3
2019-05-20T03:35:02.836Z,12.3
2019-05-20T03:35:43.108Z,12.3
2019-05-20T03:36:33.677Z,12.3
2019-05-20T03:37:23.503Z,12.3
2019-05-20T03:38:13.811Z,12.3
2019-05-20T03:39:03.602Z,12.3
2019-05-20T03:42:34.501Z,12.3
2019-05-20T03:43:24.298Z,12.3
2019-05-20T03:44:14.640Z,12.3
2019-05-20T03:45:04.427Z,12.3
2019-05-20T03:45:54.784Z,12.3
2019-05-20T03:46:44.284Z,12.3
2019-05-20T03:47:34.628Z,12.3
2019-05-20T03:48:24.955Z,12.3
2019-05-20T03:49:14.459Z,12.3
2019-05-20T03:50:05.071Z,12.3
2019-05-20T03:50:54.846Z,12.3
2019-05-20T03:51:44.953Z,12.3
2019-05-20T03:52:35.259Z,12.3
2019-05-20T03:53:25.319Z,12.3
2019-05-20T03:54:15.368Z,12.3
2019-05-20T03:55:05.446Z,12.3
2019-05-20T03:55:55.499Z,12.3
2019-05-20T03:56:45.569Z,12.3
2019-05-20T03:57:35.363Z,12.3
2019-05-20T03:58:25.717Z,12.3
2019-05-20T03:59:15.467Z,12.3
2019-05-20T04:00:05.630Z,12.4
2019-05-20T04:00:55.624Z,12.4
2019-05-20T04:01:45.671Z,12.4
2019-05-20T04:02:36.078Z,12.4
2019-05-20T04:03:26.161Z,12.4
2019-05-20T04:04:16.164Z,12.4
2019-05-20T04:05:06.228Z,12.4
2019-05-20T04:05:56.283Z,12.4
2019-05-20T04:06:46.341Z,12.5
2019-05-20T04:07:36.396Z,12.5
2019-05-20T04:08:26.552Z,12.6
2019-05-20T04:09:16.228Z,12.6
2019-05-20T04:10:06.588Z,12.6
2019-05-20T04:10:56.648Z,12.6
2019-05-20T04:11:46.728Z,12.6
2019-05-20T04:12:36.765Z,12.6
2019-05-20T04:13:26.552Z,12.7
2019-05-20T04:14:16.912Z,12.7
2019-05-20T04:15:06.980Z,12.7
2019-05-20T04:15:57.015Z,12.8
2019-05-20T04:16:47.082Z,12.8
2019-05-20T04:17:37.186Z,12.8
2019-05-20T04:18:27.216Z,12.8
2019-05-20T04:19:17.022Z,12.9
2019-05-20T04:20:07.088Z,12.9
2019-05-20T04:20:57.411Z,12.9
2019-05-20T04:21:47.584Z,13
2019-05-20T04:22:37.348Z,13
2019-05-20T04:23:27.675Z,13.1
2019-05-20T04:24:17.393Z,13.1
2019-05-20T04:25:07.734Z,13.1
2019-05-20T04:25:57.805Z,13.1
2019-05-20T04:26:47.603Z,13.2
2019-05-20T04:27:37.938Z,13.3
2019-05-20T04:28:27.972Z,13.3
2019-05-20T04:29:18.034Z,13.3
2019-05-20T04:30:08.238Z,13.3
2019-05-20T04:30:58.196Z,13.4
2019-05-20T04:31:47.944Z,13.4
2019-05-20T04:32:38.290Z,13.4
2019-05-20T04:33:28.381Z,13.5
2019-05-20T04:34:18.413Z,13.6
2019-05-20T04:35:24.324Z,13.6
2019-05-20T04:36:48.600Z,13.7
2019-05-20T04:37:38.427Z,13.8
2019-05-20T04:38:28.163Z,13.8
2019-05-20T04:39:18.796Z,13.9
2019-05-20T04:40:08.593Z,13.9
2019-05-20T04:40:58.907Z,13.9
2019-05-20T04:41:48.448Z,14
2019-05-20T04:42:39.151Z,14.1
2019-05-20T04:43:29.112Z,14.1
2019-05-20T04:44:19.170Z,14.2
2019-05-20T04:45:08.979Z,14.3
2019-05-20T04:45:59.302Z,14.3
2019-05-20T04:46:49.091Z,14.4
2019-05-20T04:47:39.457Z,14.4
2019-05-20T04:48:29.518Z,14.5
2019-05-20T04:49:19.278Z,14.6
2019-05-20T04:50:09.689Z,14.6
2019-05-20T04:50:59.681Z,14.7
2019-05-20T04:51:49.466Z,14.8
2019-05-20T04:52:39.832Z,14.8
2019-05-20T04:53:29.941Z,14.9
2019-05-20T04:54:19.942Z,14.9
2019-05-20T04:55:10.006Z,15
2019-05-20T04:55:59.780Z,15.1
2019-05-20T04:56:50.120Z,15.1
2019-05-20T04:57:40.198Z,15.2
2019-05-20T04:58:29.968Z,15.3
2019-05-20T04:59:20.316Z,15.3
2019-05-20T05:00:10.419Z,15.4
2019-05-20T05:01:00.482Z,15.5
2019-05-20T05:01:50.501Z,15.6
2019-05-20T05:02:45.057Z,15.6
2019-05-20T05:03:30.384Z,15.7
2019-05-20T05:04:20.420Z,15.8
2019-05-20T05:05:10.501Z,15.9
2019-05-20T05:06:00.938Z,15.9
2019-05-20T05:06:50.873Z,16.1
2019-05-20T05:07:40.653Z,16.1
2019-05-20T05:08:30.997Z,16.3
2019-05-20T05:09:21.050Z,16.3
2019-05-20T05:10:11.186Z,16.4
2019-05-20T05:11:00.924Z,16.5
2019-05-20T05:11:50.687Z,16.6
2019-05-20T05:12:41.299Z,16.7
2019-05-20T05:13:31.368Z,16.8
2019-05-20T05:14:20.932Z,16.9
2019-05-20T05:16:01.338Z,17.2
2019-05-20T05:16:51.619Z,17.3
2019-05-20T05:17:41.699Z,17.4
2019-05-20T05:18:31.773Z,17.6
2019-05-20T05:19:21.254Z,17.8
2019-05-20T05:20:19.515Z,18
2019-05-20T05:21:01.664Z,18.3
2019-05-20T05:21:51.994Z,18.4
2019-05-20T05:22:42.068Z,18.8
2019-05-20T05:23:32.270Z,19.2
2019-05-20T05:24:22.184Z,19.6
2019-05-20T05:25:12.242Z,20
2019-05-20T05:26:02.349Z,20.4
2019-05-20T05:26:52.110Z,20.9
2019-05-20T05:27:42.439Z,21.2
2019-05-20T05:28:32.254Z,21.5
2019-05-20T05:29:22.571Z,21.8
2019-05-20T05:30:12.630Z,21.9
2019-05-20T05:31:02.736Z,22.2
2019-05-20T05:31:52.219Z,22.3
2019-05-20T05:32:43.412Z,22.5
2019-05-20T05:33:32.897Z,22.7
2019-05-20T05:34:22.964Z,22.9
2019-05-20T05:35:13.034Z,23.1
2019-05-20T05:36:03.087Z,23.2
2019-05-20T05:36:52.627Z,23.4
2019-05-20T05:37:43.249Z,23.6
2019-05-20T05:38:32.977Z,23.8
2019-05-20T05:39:23.362Z,24
2019-05-20T05:40:13.422Z,24.2
2019-05-20T05:41:03.490Z,24.4
2019-05-20T05:41:53.514Z,24.6
2019-05-20T05:42:43.369Z,24.9
2019-05-20T05:43:33.371Z,25.1
2019-05-20T05:44:23.708Z,25.4
2019-05-20T05:45:13.795Z,25.6
2019-05-20T05:46:03.560Z,25.9
2019-05-20T05:46:53.922Z,26.1
2019-05-20T05:47:43.961Z,26.4
2019-05-20T05:48:34.024Z,26.6
2019-05-20T05:49:23.821Z,26.9
2019-05-20T05:50:14.144Z,27.1
2019-05-20T05:51:03.688Z,27.3
2019-05-20T05:51:54.278Z,27.4
2019-05-20T05:52:44.368Z,27.6
2019-05-20T05:54:24.447Z,27.9
2019-05-20T05:55:14.638Z,28.1
2019-05-20T05:56:04.585Z,28.2
2019-05-20T05:56:54.665Z,28.3
2019-05-20T05:57:44.714Z,19.8
2019-05-20T05:58:34.777Z,21.2
2019-05-20T05:59:24.854Z,30.8
2019-05-20T06:00:14.648Z,32.5
2019-05-20T06:01:05.019Z,32.3
2019-05-20T06:01:55.095Z,32.3
2019-05-20T06:04:23.485Z,32.2
2019-05-20T06:05:13.362Z,31.9
2019-05-20T06:06:13.878Z,31.8
2019-05-20T06:06:53.220Z,31.6
2019-05-20T06:07:43.588Z,31.5
2019-05-20T06:08:33.597Z,31.4
2019-05-20T06:09:23.655Z,31.3
2019-05-20T06:10:13.735Z,31.3
2019-05-20T06:11:03.797Z,31.2
2019-05-20T06:11:53.580Z,31.1
2019-05-20T06:12:43.935Z,31.1
2019-05-20T06:13:33.985Z,31.1
2019-05-20T06:14:24.062Z,31
2019-05-20T06:15:13.836Z,30.9
2019-05-20T06:16:04.192Z,30.9
2019-05-20T06:16:54.239Z,30.9
2019-05-20T06:17:44.019Z,30.9
2019-05-20T06:18:33.830Z,30.9
2019-05-20T06:19:24.439Z,30.8
2019-05-20T06:20:14.491Z,30.8
2019-05-20T06:21:04.657Z,30.8
2019-05-20T06:21:54.364Z,30.8
2019-05-20T06:22:44.446Z,30.8
2019-05-20T06:23:34.752Z,30.8
2019-05-20T06:24:24.522Z,30.3
2019-05-20T06:25:14.956Z,31.1
2019-05-20T06:26:05.464Z,33.3
2019-05-20T06:26:55.471Z,35.2
2019-05-20T06:27:45.063Z,35.5
2019-05-20T06:28:35.174Z,37.1
2019-05-20T06:29:24.646Z,37.9
2019-05-20T06:30:15.246Z,37.9
2019-05-20T06:31:05.300Z,37.3
2019-05-20T06:31:55.108Z,37
2019-05-20T06:32:45.190Z,36.8
2019-05-20T06:33:35.510Z,36.9
2019-05-20T06:34:25.780Z,37.1
2019-05-20T06:35:15.678Z,37.4
2019-05-20T06:36:05.683Z,37.4
2019-05-20T06:36:55.751Z,37.4
2019-05-20T06:37:45.808Z,37.4
2019-05-20T06:38:35.885Z,37.4
2019-05-20T06:39:25.954Z,37.3
2019-05-20T06:40:16.048Z,37.4
2019-05-20T06:41:06.063Z,37.4
2019-05-20T06:41:56.146Z,37.4
2019-05-20T06:42:46.711Z,37.4
2019-05-20T06:43:36.476Z,37.5
2019-05-20T06:44:26.552Z,37.5
2019-05-20T06:45:16.863Z,37.6
2019-05-20T06:46:06.683Z,37.7
2019-05-20T06:46:56.758Z,37.8
2019-05-20T06:47:47.053Z,37.8
2019-05-20T06:48:37.201Z,37.8
2019-05-20T06:49:26.630Z,37.8
2019-05-20T06:50:17.289Z,37.8
2019-05-20T06:51:07.303Z,37.9
2019-05-20T06:51:57.367Z,37.9
2019-05-20T06:52:47.541Z,38.1
2019-05-20T06:53:37.591Z,38.4
2019-05-20T06:54:27.681Z,38.6
2019-05-20T06:55:17.065Z,38.7
2019-05-20T06:56:07.703Z,38.8
2019-05-20T06:56:57.806Z,38.9
2019-05-20T06:57:47.559Z,39.1
2019-05-20T06:58:37.595Z,39.4
2019-05-20T06:59:27.668Z,39.6
2019-05-20T07:00:17.727Z,39.7
2019-05-20T07:01:08.069Z,39.7
2019-05-20T07:01:58.152Z,39.9
2019-05-20T07:04:23.757Z,40.4
2019-05-20T07:05:13.811Z,40.5
2019-05-20T07:06:03.354Z,40.7
2019-05-20T07:06:53.948Z,40.8
2019-05-20T07:07:43.707Z,40.9
2019-05-20T07:08:34.121Z,41
2019-05-20T09:47:56.253Z,85
2019-05-20T09:48:46.411Z,58.3
2019-05-20T09:51:16.256Z,58.3
2019-05-20T09:52:06.610Z,58.4
2019-05-20T09:52:56.664Z,58.5
2019-05-20T09:53:46.445Z,58.8
2019-05-20T09:54:36.224Z,58.9
2019-05-20T09:55:26.961Z,59
2019-05-20T09:56:16.928Z,58.9
2019-05-20T09:57:07.062Z,58.9
2019-05-20T10:24:35.096Z,85
2019-05-20T10:25:25.166Z,53.8
2019-05-20T10:26:15.235Z,53.8
2019-05-20T10:27:05.293Z,53.8
2019-05-20T10:27:59.084Z,53.8
2019-05-20T10:28:48.884Z,53.8
2019-05-20T10:29:35.207Z,53.7
2019-05-20T10:30:25.609Z,53.7
2019-05-20T10:31:15.625Z,53.7
2019-05-20T10:32:05.416Z,53.6
2019-05-20T10:32:55.508Z,53.5
2019-05-20T10:33:45.790Z,53.4
2019-05-20T10:34:39.195Z,53.3
2019-05-20T10:35:25.963Z,53.2
2019-05-20T10:36:15.972Z,53.2
2019-05-20T10:37:05.762Z,53.1
2019-05-20T10:37:56.191Z,52.9
2019-05-20T10:39:00.488Z,52.5
2019-05-20T10:40:26.032Z,51.6
2019-05-20T10:41:15.812Z,51.3
2019-05-20T10:42:06.427Z,51.1
2019-05-20T10:42:56.517Z,50.9
2019-05-20T10:43:46.294Z,50.4
2019-05-20T10:44:36.337Z,50.8
2019-05-20T10:45:26.667Z,51.6
2019-05-20T10:46:16.522Z,51.7
2019-05-20T10:47:06.801Z,51.5
2019-05-20T10:47:56.341Z,50.5
2019-05-20T10:48:46.937Z,49.1
2019-05-20T10:49:36.474Z,48.1
2019-05-20T10:50:26.790Z,47.2
2019-05-20T10:51:16.844Z,46.4
2019-05-20T10:52:07.224Z,45.7
2019-05-20T10:52:57.075Z,45
2019-05-20T10:53:47.485Z,44.4
2019-05-20T10:54:37.446Z,43.7
2019-05-20T10:55:27.535Z,43.1
2019-05-20T10:56:17.498Z,42.5
2019-05-20T10:57:07.308Z,42
2019-05-20T10:57:57.657Z,41.4
2019-05-20T10:58:47.763Z,40.9
2019-05-20T10:59:37.791Z,40.4
2019-05-20T11:00:27.702Z,39.9
2019-05-20T11:01:17.896Z,39.5
2019-05-20T11:02:07.957Z,39.1
2019-05-20T11:02:58.141Z,38.6
2019-05-20T11:03:48.081Z,38.2
2019-05-20T11:04:38.211Z,37.8
2019-05-20T11:05:28.231Z,37.4
2019-05-20T11:06:17.751Z,37.1
2019-05-20T11:07:08.349Z,36.7
2019-05-20T11:07:59.005Z,36.4
2019-05-20T11:08:48.478Z,36.1
2019-05-20T11:09:38.551Z,35.8
2019-05-20T11:10:28.374Z,35.4
2019-05-20T11:11:18.673Z,35.1
2019-05-20T11:12:08.830Z,34.9
2019-05-20T11:12:58.795Z,34.6
2019-05-20T11:13:48.597Z,34.3
2019-05-20T11:14:38.640Z,34.1
2019-05-20T11:15:29.071Z,33.8
2019-05-20T11:16:19.050Z,33.6
2019-05-20T11:17:09.118Z,33.3
2019-05-20T11:17:59.242Z,33.1
2019-05-20T11:18:48.697Z,32.8
2019-05-20T11:19:38.774Z,32.6
2019-05-20T11:20:29.090Z,32.4
2019-05-20T11:21:19.173Z,32.3
2019-05-20T11:22:09.300Z,32.1
2019-05-20T11:23:02.672Z,31.9
2019-05-20T11:23:49.623Z,31.8
2019-05-20T11:24:39.687Z,31.6
2019-05-20T11:25:29.472Z,31.4
2019-05-20T11:26:19.814Z,31.3
2019-05-20T11:27:09.603Z,31.2
2019-05-20T11:27:59.959Z,31
2019-05-20T11:28:50.017Z,30.9
2019-05-20T11:29:40.112Z,30.8
2019-05-20T11:30:30.125Z,30.6
2019-05-20T11:31:19.920Z,30.4
2019-05-20T11:32:10.354Z,30.3
2019-05-20T11:33:00.348Z,30.1
2019-05-20T11:33:50.395Z,29.9
2019-05-20T11:34:40.260Z,29.8
2019-05-20T11:35:29.959Z,29.7
2019-05-20T11:36:20.289Z,29.6
2019-05-20T11:37:10.664Z,29.4
2019-05-20T11:38:00.761Z,29.3
2019-05-20T11:38:50.221Z,29.2
2019-05-20T11:39:40.893Z,29.1
2019-05-20T11:40:30.608Z,28.9
2019-05-20T11:41:47.005Z,28.8
2019-05-20T11:43:00.813Z,28.6
2019-05-20T11:43:51.151Z,28.5
2019-05-20T11:44:40.676Z,28.4
2019-05-20T11:45:31.024Z,28.3
2019-05-20T11:46:21.346Z,28.3
2019-05-20T11:47:11.435Z,28.2
2019-05-20T11:48:01.201Z,28.1
2019-05-20T11:48:51.535Z,28.1
2019-05-20T11:49:41.704Z,28
2019-05-20T11:50:31.883Z,27.9
2019-05-20T11:51:21.730Z,27.9
2019-05-20T11:52:11.515Z,27.9
2019-05-20T11:53:01.857Z,27.9
2019-05-20T11:53:51.960Z,27.9
2019-05-20T11:57:11.888Z,27.9
2019-05-20T11:58:17.695Z,27.9
2019-05-20T12:00:32.197Z,27.9
2019-05-20T12:01:22.557Z,27.9
2019-05-20T12:02:12.290Z,27.9
2019-05-20T12:03:02.625Z,27.9
2019-05-20T12:05:23.307Z,27.9
2019-05-20T12:06:13.519Z,27.9
2019-05-20T12:07:03.703Z,27.9
2019-05-20T12:08:43.807Z,28
2019-05-20T12:09:51.649Z,28
2019-05-20T12:12:04.142Z,28.1
2019-05-20T12:12:54.134Z,28.1
2019-05-20T12:13:44.194Z,28.1
2019-05-20T12:14:34.244Z,28.1
2019-05-20T12:15:24.324Z,28.1
2019-05-20T12:16:14.433Z,28.1
2019-05-20T12:17:04.451Z,28.1
2019-05-20T12:17:54.499Z,28
2019-05-20T12:18:46.740Z,28
2019-05-20T12:20:24.706Z,27.9
2019-05-20T12:21:14.836Z,27.9
2019-05-20T12:22:54.888Z,27.8
2019-05-20T12:23:44.956Z,27.7
2019-05-20T12:24:34.735Z,27.6
2019-05-20T12:25:24.834Z,27.6
2019-05-20T12:26:15.173Z,27.5
2019-05-20T12:27:04.965Z,27.4
2019-05-20T12:27:55.023Z,27.4
2019-05-20T12:28:45.084Z,27.3
2019-05-20T12:29:35.178Z,27.3
2019-05-20T12:30:25.646Z,27.2
2019-05-20T12:31:15.308Z,27.1
2019-05-20T12:32:05.626Z,27.1
2019-05-20T12:33:20.373Z,26.9
2019-05-20T12:34:35.896Z,26.8
2019-05-20T12:35:25.298Z,26.8
2019-05-20T12:36:15.368Z,26.7
2019-05-20T12:37:06.003Z,26.6
2019-05-20T12:37:56.025Z,26.5
2019-05-20T12:38:46.337Z,26.4
2019-05-20T12:39:36.338Z,26.3
2019-05-20T12:40:26.220Z,26.2
2019-05-20T12:41:16.292Z,26.1
2019-05-20T12:42:21.015Z,26
2019-05-20T12:43:47.164Z,25.8
2019-05-20T12:45:26.705Z,25.6
2019-05-20T12:46:16.667Z,25.4
2019-05-20T12:47:56.792Z,25.2
2019-05-20T12:48:47.295Z,25.1
2019-05-20T12:49:36.922Z,25
2019-05-20T12:51:17.082Z,24.8
2019-05-20T12:52:07.247Z,24.6
2019-05-20T12:52:57.190Z,24.5
2019-05-20T12:53:47.269Z,24.4
2019-05-20T12:54:37.037Z,24.3
2019-05-20T12:55:27.614Z,24.1
2019-05-20T12:56:21.084Z,24
2019-05-20T12:57:07.298Z,23.9
2019-05-20T12:58:47.629Z,23.6
2019-05-20T12:59:38.119Z,23.6
2019-05-20T13:02:07.604Z,23.2
2019-05-20T13:02:57.937Z,23.1
2019-05-20T13:03:47.730Z,22.9
2019-05-20T13:04:38.059Z,22.8
2019-05-20T13:05:28.371Z,22.8
2019-05-20T13:06:18.235Z,22.6
2019-05-20T13:07:07.743Z,22.6
2019-05-20T13:07:58.554Z,22.4
2019-05-20T13:08:48.384Z,22.4
2019-05-20T13:09:38.729Z,22.3
2019-05-20T13:10:33.694Z,22.2
2019-05-20T13:11:18.614Z,22.1
2019-05-20T13:12:07.960Z,22.1
2019-05-20T13:12:58.693Z,22
2019-05-20T13:13:48.492Z,21.9
2019-05-20T13:14:38.834Z,21.9
2019-05-20T13:15:28.884Z,21.8
2019-05-20T13:16:19.046Z,21.8
2019-05-20T13:17:09.016Z,21.7
2019-05-20T13:17:58.824Z,21.6
2019-05-20T13:18:57.648Z,21.6
2019-05-20T13:19:38.958Z,21.6
2019-05-20T13:20:29.320Z,21.6
2019-05-20T13:21:19.332Z,21.6
2019-05-20T13:22:09.600Z,21.6
2019-05-20T13:22:59.485Z,21.8
2019-05-20T13:23:50.726Z,21.8
2019-05-20T13:24:39.694Z,21.9
2019-05-20T13:25:29.377Z,22
2019-05-20T13:26:19.865Z,22.1
2019-05-20T13:27:09.557Z,22.2
2019-05-20T13:27:59.611Z,22.3
2019-05-20T13:28:49.905Z,22.4
2019-05-20T13:29:39.740Z,22.6
2019-05-20T13:30:29.954Z,22.7
2019-05-20T13:31:19.842Z,22.8
2019-05-20T13:32:09.597Z,22.9
2019-05-20T13:32:59.974Z,23.1
2019-05-20T13:33:50.009Z,23.3
2019-05-20T13:34:40.368Z,23.4
2019-05-20T13:35:30.499Z,23.6
2019-05-20T13:36:20.219Z,23.7
2019-05-20T13:37:10.547Z,23.8
2019-05-20T13:38:00.597Z,24
2019-05-20T13:38:50.419Z,24.1
2019-05-20T13:39:40.737Z,24.3
2019-05-20T13:40:48.547Z,24.4
2019-05-20T13:42:10.649Z,24.8
2019-05-20T13:43:00.735Z,24.9
2019-05-20T13:43:51.071Z,25.1
2019-05-20T13:44:41.148Z,25.3
2019-05-20T13:45:30.905Z,25.5
2019-05-20T13:46:21.249Z,25.7
2019-05-20T13:48:01.360Z,26.1
2019-05-20T13:48:51.724Z,26.3
2019-05-20T13:49:41.547Z,26.5
2019-05-20T13:50:31.613Z,26.8
2019-05-20T13:52:11.744Z,27.4
2019-05-20T13:53:51.686Z,28
2019-05-20T13:54:42.049Z,28.4
2019-05-20T13:55:31.936Z,28.8
2019-05-20T13:56:22.256Z,29.1
2019-05-20T13:58:02.799Z,29.7
2019-05-20T13:58:52.298Z,29.9
2019-05-20T13:59:42.071Z,30
2019-05-20T14:00:31.821Z,30.2
2019-05-20T14:01:22.430Z,30.3
2019-05-20T14:02:11.920Z,30.4
2019-05-20T14:03:02.532Z,30.5
2019-05-20T14:03:52.035Z,30.6
2019-05-20T14:06:38.139Z,30.8
2019-05-20T14:08:03.620Z,31
2019-05-20T14:08:53.400Z,31.1
2019-05-20T14:09:43.460Z,31.2
2019-05-20T14:10:33.793Z,31.3
2019-05-20T14:11:36.054Z,31.4
2019-05-20T14:13:04.007Z,31.6
2019-05-20T14:13:54.040Z,31.7
2019-05-20T14:14:44.113Z,31.8
2019-05-20T14:15:33.895Z,31.8
2019-05-20T14:16:24.342Z,31.8
2019-05-20T14:17:14.315Z,31.8
2019-05-20T14:18:04.361Z,31.8
2019-05-20T14:18:54.410Z,31.8
2019-05-20T14:19:44.486Z,31.8
2019-05-20T14:20:34.273Z,31.7
2019-05-20T14:21:24.372Z,31.6
2019-05-20T14:22:14.399Z,31.6
2019-05-20T14:23:04.736Z,31.4
2019-05-20T14:23:54.549Z,31.4
2019-05-20T14:24:44.967Z,31.3
2019-05-20T14:25:34.929Z,31.2
2019-05-20T14:26:25.031Z,31.1
2019-05-20T14:27:15.365Z,30.9
2019-05-20T14:28:05.149Z,30.8
2019-05-20T14:28:55.178Z,30.7
2019-05-20T14:29:45.238Z,30.6
2019-05-20T14:30:35.091Z,30.5
2019-05-20T14:31:25.196Z,30.4
2019-05-20T14:32:15.434Z,30.3
2019-05-20T14:33:05.761Z,30.1
2019-05-20T14:33:55.568Z,30
2019-05-20T14:34:45.686Z,29.8
2019-05-20T14:35:35.717Z,29.7
2019-05-20T14:36:41.270Z,29.6
2019-05-20T14:38:05.349Z,29.3
2019-05-20T14:38:55.403Z,29.2
2019-05-20T14:39:46.646Z,29.1
2019-05-20T14:40:36.106Z,28.9
2019-05-20T14:41:26.141Z,28.8
2019-05-20T14:42:16.240Z,28.7
2019-05-20T14:43:05.993Z,28.6
2019-05-20T14:43:56.320Z,28.4
2019-05-20T14:44:46.418Z,28.3
2019-05-20T14:45:36.247Z,28.2
2019-05-20T14:46:26.240Z,28.1
2019-05-20T14:47:16.033Z,28
2019-05-20T14:48:07.068Z,27.9
2019-05-20T14:48:56.701Z,27.8
2019-05-20T14:50:36.860Z,27.6
2019-05-20T14:51:26.628Z,27.4
2019-05-20T14:52:17.110Z,27.3
2019-05-20T14:53:07.221Z,27.3
2019-05-20T14:53:56.818Z,27.1
2019-05-20T14:54:47.173Z,27.1
2019-05-20T14:55:44.081Z,26.9
2019-05-20T14:56:27.282Z,26.9
2019-05-20T14:57:17.350Z,26.8
2019-05-20T14:58:07.140Z,26.7
2019-05-20T14:58:57.473Z,26.6
2019-05-20T14:59:47.539Z,26.4
2019-05-20T15:00:37.629Z,26.4
2019-05-20T15:01:27.102Z,26.3
2019-05-20T15:02:17.511Z,26.2
2019-05-20T15:03:07.610Z,26.1
2019-05-20T15:03:57.858Z,26